Time;durP1;ratioP1;P1;durP2;ratioP2;P2;SDS_P1;SDS_P2;PMS_P1;PMS_P2;Temp;Humidity;BMP_temperature;BMP_pressure;BME280_temperature;BME280_humidity;BME280_pressure;Samples;Min_cycle;Max_cycle;Signal;HPM_P1;HPM_P2
2022/08/08 00:02:34;;;;;;;6.65;6.05;;;;;;;22.69;71.03;101018.63;5079122;27;102324;-54
2022/08/08 00:05:06;;;;;;;6.25;5.75;;;;;;;22.69;71.35;101018.63;5077681;27;102392;-55
2022/08/08 00:07:45;;;;;;;6.47;5.88;;;;;;;22.70;71.00;101019.44;5079566;27;102060;-54
2022/08/08 00:10:18;;;;;;;6.72;6.13;;;;;;;22.69;71.05;101024.19;5078151;27;104195;-54
2022/08/08 00:12:50;;;;;;;6.30;5.70;;;;;;;22.69;71.24;101024.19;5078406;27;102155;-54
2022/08/08 00:15:21;;;;;;;6.05;5.55;;;;;;;22.70;71.22;101019.44;5079004;27;102148;-54
2022/08/08 00:17:51;;;;;;;7.03;6.13;;;;;;;22.70;71.35;101019.44;5073996;27;102178;-54
2022/08/08 00:20:28;;;;;;;6.22;5.63;;;;;;;22.69;71.17;101024.19;5077880;27;104166;-54
2022/08/08 00:23:01;;;;;;;5.97;5.47;;;;;;;22.69;71.31;101020.59;5078647;27;102481;-54
2022/08/08 00:25:32;;;;;;;7.82;5.90;;;;;;;22.68;71.08;101022.53;5077825;27;103819;-54
2022/08/08 00:28:03;;;;;;;5.95;5.45;;;;;;;22.69;71.08;101024.19;5078984;27;102965;-54
2022/08/08 00:30:34;;;;;;;6.35;5.85;;;;;;;22.69;71.25;101024.19;5072793;27;103979;-54
2022/08/08 00:33:05;;;;;;;6.45;5.85;;;;;;;22.69;71.50;101023.38;5078681;27;102322;-54
2022/08/08 00:35:40;;;;;;;6.35;5.85;;;;;;;22.69;71.19;101026.16;5078170;27;102348;-55
2022/08/08 00:38:22;;;;;;;5.95;5.45;;;;;;;22.68;71.25;101021.75;5078162;27;102466;-54
2022/08/08 00:41:22;;;;;;;6.50;5.90;;;;;;;22.68;71.08;101025.31;5079311;27;107581;-54
2022/08/08 00:44:27;;;;;;;6.25;5.75;;;;;;;22.68;71.35;101028.09;5086196;27;103076;-54
2022/08/08 00:47:30;;;;;;;6.43;5.78;;;;;;;22.69;71.05;101020.59;5025156;27;102738;-55
2022/08/08 00:50:39;;;;;;;6.05;5.55;;;;;;;22.66;71.21;101027.66;5089788;27;102114;-54
2022/08/08 00:53:17;;;;;;;6.28;5.68;;;;;;;22.67;71.46;101020.94;5070076;27;108250;-54
2022/08/08 00:56:20;;;;;;;6.13;5.63;;;;;;;22.68;71.54;101025.31;5077217;27;102186;-55
2022/08/08 00:59:34;;;;;;;6.88;6.20;;;;;;;22.68;71.37;101025.31;5076388;27;102334;-54
2022/08/08 01:02:21;;;;;;;6.50;5.57;;;;;;;22.67;71.41;101018.16;5074171;27;102194;-54
2022/08/08 01:05:11;;;;;;;6.28;5.78;;;;;;;22.67;71.58;101020.94;5076716;27;103923;-54
2022/08/08 01:07:54;;;;;;;5.80;5.30;;;;;;;22.67;71.45;101020.13;5092968;27;102313;-54
2022/08/08 01:11:12;;;;;;;6.03;5.53;;;;;;;22.65;71.25;101026.03;5083772;27;102575;-54
2022/08/08 01:14:04;;;;;;;8.30;5.72;;;;;;;22.66;71.45;101022.09;5009309;28;102189;-54
2022/08/08 01:17:10;;;;;;;5.95;5.35;;;;;;;22.64;71.67;101024.41;5026607;28;103999;-54
2022/08/08 01:20:14;;;;;;;5.75;5.22;;;;;;;22.66;71.28;101024.88;5078459;27;102274;-54
2022/08/08 01:23:17;;;;;;;5.93;5.43;;;;;;;22.64;71.19;101027.16;5096633;27;102467;-55
2022/08/08 01:26:31;;;;;;;6.75;5.40;;;;;;;22.64;71.35;101024.41;5084019;27;102834;-54
2022/08/08 01:29:47;;;;;;;6.15;5.60;;;;;;;22.65;71.07;101033.56;5068627;27;103849;-54
2022/08/08 01:33:00;;;;;;;6.03;5.53;;;;;;;22.63;71.23;101031.09;5076769;27;102053;-55
2022/08/08 01:35:51;;;;;;;5.60;5.10;;;;;;;22.63;71.33;101031.09;5039037;27;102366;-55
2022/08/08 01:38:53;;;;;;;6.22;5.50;;;;;;;22.64;71.30;101043.81;5075923;27;102287;-54
2022/08/08 01:41:30;;;;;;;6.30;5.70;;;;;;;22.62;71.80;101040.59;5070391;27;108142;-54
2022/08/08 01:44:05;;;;;;;6.13;5.55;;;;;;;22.64;71.49;101043.00;5076838;27;102069;-54
2022/08/08 01:46:50;;;;;;;6.13;5.63;;;;;;;22.62;71.36;101037.81;5076371;27;102222;-54
2022/08/08 01:49:26;;;;;;;5.88;5.40;;;;;;;22.63;71.51;101042.22;5084752;27;102369;-54
2022/08/08 01:52:01;;;;;;;6.25;5.75;;;;;;;22.63;71.23;101047.75;5086988;27;104018;-55
2022/08/08 01:54:45;;;;;;;5.88;5.43;;;;;;;22.62;71.47;101051.69;5076772;27;103891;-54
2022/08/08 01:57:24;;;;;;;5.60;5.15;;;;;;;22.63;71.47;101044.19;5076777;27;102259;-54
2022/08/08 02:00:07;;;;;;;6.22;5.65;;;;;;;22.63;71.45;101046.94;5076028;27;102836;-54
2022/08/08 02:02:49;;;;;;;5.95;5.45;;;;;;;22.62;71.32;101050.88;5076659;27;104098;-55
2022/08/08 02:05:30;;;;;;;6.32;5.82;;;;;;;22.62;71.36;101057.25;5077074;27;102638;-54
2022/08/08 02:08:09;;;;;;;6.75;5.88;;;;;;;22.62;71.11;101060.00;5073377;27;102069;-54
2022/08/08 02:10:53;;;;;;;6.38;5.88;;;;;;;22.63;71.33;101064.41;5060823;27;102279;-54
2022/08/08 02:13:28;;;;;;;5.45;5.03;;;;;;;22.63;71.34;101066.38;5075192;27;104318;-54
2022/08/08 02:16:05;;;;;;;6.38;5.78;;;;;;;22.63;71.13;101069.94;5077227;27;102796;-54
2022/08/08 02:18:39;;;;;;;6.32;5.70;;;;;;;22.61;71.39;101066.72;5085963;27;102160;-55
2022/08/08 02:24:13;;;;;;;5.93;5.50;;;;;;;22.62;71.17;101065.56;5065106;27;103693;-58
2022/08/08 02:26:48;;;;;;;6.22;5.72;;;;;;;22.61;71.43;101065.88;5077506;27;102145;-55
2022/08/08 02:29:37;;;;;;;5.85;5.40;;;;;;;22.61;71.35;101072.28;5076645;27;102329;-55
2022/08/08 02:32:21;;;;;;;5.70;5.22;;;;;;;22.61;71.26;101072.28;5076057;27;102316;-54
2022/08/08 02:35:08;;;;;;;6.18;5.68;;;;;;;22.61;71.39;101072.28;5077392;27;104155;-54
2022/08/08 02:37:51;;;;;;;5.93;5.45;;;;;;;22.60;71.45;101081.72;5075589;27;102340;-54
2022/08/08 02:40:32;;;;;;;6.20;5.70;;;;;;;22.61;71.23;101082.53;5076224;27;101993;-54
2022/08/08 02:43:39;;;;;;;5.85;5.30;;;;;;;22.60;71.38;101078.94;5087945;27;102570;-54
2022/08/08 02:46:31;;;;;;;6.20;5.70;;;;;;;22.59;71.17;101082.88;5088092;27;103912;-54
2022/08/08 02:49:41;;;;;;;5.93;5.32;;;;;;;22.60;71.35;101092.81;5085966;27;102428;-54
2022/08/08 02:52:39;;;;;;;6.50;6.00;;;;;;;22.59;71.37;101085.66;5075366;27;102046;-58
2022/08/08 02:55:42;;;;;;;5.53;5.03;;;;;;;22.59;71.21;101084.84;5076112;27;102313;-54
2022/08/08 02:58:49;;;;;;;6.78;6.28;;;;;;;22.59;71.04;101082.88;5075481;27;103945;-54
2022/08/08 03:02:01;;;;;;;6.17;5.67;;;;;;;22.59;71.46;101091.22;5075647;27;102514;-54
2022/08/08 03:05:23;;;;;;;6.32;5.82;;;;;;;22.59;71.38;101096.75;5074311;27;101969;-54
2022/08/08 03:08:31;;;;;;;6.55;5.95;;;;;;;22.59;71.31;101101.50;5042926;27;102258;-54
2022/08/08 03:11:32;;;;;;;6.57;5.97;;;;;;;22.59;71.30;101096.75;5074973;27;107844;-54
2022/08/08 03:14:25;;;;;;;6.43;5.93;;;;;;;22.59;71.22;101107.03;5061002;27;103437;-54
2022/08/08 03:16:58;;;;;;;5.93;5.35;;;;;;;22.58;71.29;101100.69;5067192;27;102349;-54
2022/08/08 03:19:49;;;;;;;5.78;5.38;;;;;;;22.58;71.24;101111.78;5068856;27;102081;-54
2022/08/08 03:22:15;;;;;;;6.53;5.85;;;;;;;22.58;71.42;101110.97;5092201;27;104265;-54
2022/08/08 03:24:44;;;;;;;6.07;5.57;;;;;;;22.58;71.24;101111.78;5095405;27;102578;-54
2022/08/08 03:27:17;;;;;;;6.35;5.80;;;;;;;22.59;71.47;101116.19;5095233;27;102539;-54
2022/08/08 03:29:51;;;;;;;5.95;5.45;;;;;;;22.59;71.21;101118.94;5114226;27;102532;-54
2022/08/08 03:35:03;;;;;;;6.00;5.50;;;;;;;22.62;71.24;101123.81;5060334;27;102173;-54
2022/08/08 03:37:33;;;;;;;6.38;5.78;;;;;;;22.60;71.62;101126.09;5080676;27;102928;-54
2022/08/08 03:40:02;;;;;;;6.90;6.25;;;;;;;22.62;71.20;101123.81;5080140;27;102377;-54
2022/08/08 03:42:30;;;;;;;7.72;5.82;;;;;;;22.63;71.21;101124.63;5081047;27;103987;-54
2022/08/08 03:44:56;;;;;;;6.10;5.60;;;;;;;22.64;71.58;101132.59;5082945;27;102550;-54
2022/08/08 03:47:23;;;;;;;6.47;5.88;;;;;;;22.64;71.15;101131.78;5083336;27;102500;-54
2022/08/08 03:49:50;;;;;;;6.70;6.03;;;;;;;22.66;71.18;101135.84;5094529;27;102322;-54
2022/08/08 03:52:17;;;;;;;6.45;5.82;;;;;;;22.67;71.19;101142.19;5080633;27;104566;-54
2022/08/08 03:54:45;;;;;;;5.70;5.20;;;;;;;22.69;70.92;101139.91;5091235;27;102197;-54
2022/08/08 03:57:14;;;;;;;6.35;5.85;;;;;;;22.70;71.00;101136.78;5086194;27;102311;-54
2022/08/08 03:59:41;;;;;;;5.85;5.35;;;;;;;22.70;71.17;101150.66;5095163;27;102282;-54
2022/08/08 04:02:15;;;;;;;13.50;6.43;;;;;;;22.72;70.79;101144.75;5080653;27;103946;-54
2022/08/08 04:04:41;;;;;;;6.45;5.60;;;;;;;22.71;70.92;101143.94;5082634;27;102167;-54
2022/08/08 04:07:08;;;;;;;6.20;5.70;;;;;;;22.72;70.61;101145.56;5093613;27;103821;-54
2022/08/08 04:09:34;;;;;;;6.30;5.72;;;;;;;22.72;70.64;101151.13;5082198;27;102098;-54
2022/08/08 04:12:01;;;;;;;5.75;5.25;;;;;;;22.73;70.52;101151.94;5072952;27;103975;-54
2022/08/08 04:14:30;;;;;;;6.72;6.13;;;;;;;22.73;70.58;101147.19;5078537;27;101913;-54
2022/08/08 04:16:56;;;;;;;6.50;6.00;;;;;;;22.74;70.91;101157.13;5078764;27;102032;-54
2022/08/08 04:19:23;;;;;;;6.40;5.90;;;;;;;22.74;70.58;101168.22;5079009;27;102644;-54
2022/08/08 04:21:49;;;;;;;6.15;5.55;;;;;;;22.74;70.51;101168.22;5076711;27;103964;-54
2022/08/08 04:24:16;;;;;;;5.90;5.40;;;;;;;22.75;70.78;101167.06;5077510;27;102265;-54
2022/08/08 04:26:42;;;;;;;6.07;5.57;;;;;;;22.75;70.67;101166.25;5078758;27;101966;-54
2022/08/08 04:29:09;;;;;;;6.57;6.03;;;;;;;22.75;70.69;101157.94;5078404;27;102145;-54
2022/08/08 04:31:37;;;;;;;5.90;5.40;;;;;;;22.76;70.72;101168.69;5076960;27;104127;-54
2022/08/08 04:34:03;;;;;;;10.73;5.97;;;;;;;22.76;70.64;101168.69;5078368;27;102155;-54
2022/08/08 04:36:30;;;;;;;13.65;5.47;;;;;;;22.75;70.94;101167.06;5077992;27;102929;-54
2022/08/08 04:38:56;;;;;;;5.32;4.85;;;;;;;22.75;70.56;101171.81;5077795;27;102476;-54
2022/08/08 04:41:23;;;;;;;6.25;5.65;;;;;;;22.77;70.67;101172.28;5076040;27;103852;-54
2022/08/08 04:43:50;;;;;;;6.13;5.03;;;;;;;22.77;70.66;101173.09;5078445;27;101930;-54
2022/08/08 04:46:16;;;;;;;6.07;5.57;;;;;;;22.78;70.77;101177.47;5067932;27;102357;-53
2022/08/08 04:48:44;;;;;;;9.10;5.63;;;;;;;22.76;70.76;101177.03;5073519;27;102262;-54
2022/08/08 04:51:10;;;;;;;6.27;5.77;;;;;;;22.77;70.70;101175.88;5076719;27;103918;-54
2022/08/08 04:53:37;;;;;;;6.45;5.95;;;;;;;22.77;70.76;101178.63;5072512;27;102101;-54
2022/08/08 04:56:04;;;;;;;8.35;6.00;;;;;;;22.77;70.85;101175.06;5057620;27;102259;-54
2022/08/08 04:58:30;;;;;;;6.30;5.80;;;;;;;22.77;70.97;101175.88;5072901;27;102231;-54
2022/08/08 05:00:56;;;;;;;6.20;5.70;;;;;;;22.77;70.75;101178.63;5075355;27;103932;-54
2022/08/08 05:03:23;;;;;;;6.57;5.47;;;;;;;22.79;70.60;101179.13;5090588;27;102174;-55
2022/08/08 05:05:51;;;;;;;5.68;5.28;;;;;;;22.81;71.02;101186.28;5083746;27;102311;-54
2022/08/08 05:08:18;;;;;;;6.20;5.70;;;;;;;22.81;70.61;101180.72;5076652;27;102612;-54
2022/08/08 05:10:44;;;;;;;5.82;5.32;;;;;;;22.82;70.49;101182.34;5075617;27;104055;-54
2022/08/08 05:13:13;;;;;;;5.80;5.35;;;;;;;22.82;71.00;101183.16;5072921;27;104197;-54
2022/08/08 05:15:39;;;;;;;6.13;5.63;;;;;;;22.84;70.35;101191.16;5075496;27;103615;-54
2022/08/08 05:18:06;;;;;;;6.05;5.55;;;;;;;22.85;70.86;101193.56;5077291;27;102531;-55
2022/08/08 05:20:32;;;;;;;6.40;5.80;;;;;;;22.84;70.66;101191.97;5077003;27;103836;-55
2022/08/08 05:23:00;;;;;;;5.38;4.97;;;;;;;22.85;70.84;101187.22;5075956;27;104587;-55
2022/08/08 05:25:27;;;;;;;7.13;6.25;;;;;;;22.86;70.65;101192.41;5077902;27;102215;-54
2022/08/08 05:27:54;;;;;;;6.03;5.53;;;;;;;22.88;70.64;101186.53;5078806;27;102132;-54
2022/08/08 05:30:20;;;;;;;6.15;5.55;;;;;;;22.88;70.46;101180.97;5077313;27;104306;-55
2022/08/08 05:32:47;;;;;;;5.75;5.25;;;;;;;22.88;70.68;101181.78;5082697;27;102415;-54
2022/08/08 05:35:13;;;;;;;5.97;5.47;;;;;;;22.91;70.61;101185.84;5077681;27;102037;-54
2022/08/08 05:37:47;;;;;;;6.18;5.68;;;;;;;22.92;70.81;101182.75;5082551;27;102610;-54
2022/08/08 05:40:16;;;;;;;5.93;5.43;;;;;;;22.93;70.75;101184.34;5073943;27;103822;-54
2022/08/08 05:42:44;;;;;;;6.30;5.78;;;;;;;22.94;70.70;101188.78;5080873;27;103627;-54
2022/08/08 05:45:14;;;;;;;6.47;5.85;;;;;;;22.95;70.67;101186.81;5071285;27;102298;-54
2022/08/08 05:47:41;;;;;;;7.30;6.60;;;;;;;22.97;70.45;101193.66;5077571;27;102121;-54
2022/08/08 05:50:08;;;;;;;6.47;5.95;;;;;;;22.98;70.53;101202.78;5075947;27;108383;-54
2022/08/08 05:52:36;;;;;;;6.15;5.65;;;;;;;23.00;70.86;101194.91;5077076;27;102402;-54
2022/08/08 05:55:04;;;;;;;6.35;5.85;;;;;;;23.01;70.08;101194.56;5076163;27;102327;-53
2022/08/08 05:57:34;;;;;;;6.13;5.63;;;;;;;23.02;70.36;101201.75;5077404;27;102166;-55
2022/08/08 06:00:05;;;;;;;6.05;5.25;;;;;;;23.05;70.33;101197.47;5076002;27;103916;-54
2022/08/08 06:05:19;;;;;;;6.70;6.10;;;;;;;23.09;69.09;101203.16;5081809;27;106870;-54
2022/08/08 06:07:47;;;;;;;6.60;6.00;;;;;;;23.12;68.74;101197.72;5070676;27;102635;-55
2022/08/08 06:10:14;;;;;;;6.93;5.50;;;;;;;23.13;69.37;101199.34;5072041;27;103910;-54
2022/08/08 06:12:43;;;;;;;6.15;5.65;;;;;;;23.13;68.88;101204.88;5075119;27;102192;-55
2022/08/08 06:15:10;;;;;;;6.53;5.97;;;;;;;23.13;69.59;101193.78;5076760;27;101964;-54
2022/08/08 06:17:39;;;;;;;6.35;5.75;;;;;;;23.15;69.24;101199.81;5086739;27;102644;-54
2022/08/08 06:20:08;;;;;;;6.60;6.10;;;;;;;23.13;68.83;101207.66;5095889;27;103949;-54
2022/08/08 06:22:34;;;;;;;6.85;6.15;;;;;;;23.15;69.90;101197.03;5069543;27;102313;-54
2022/08/08 06:25:01;;;;;;;6.13;5.57;;;;;;;23.15;69.83;101201.75;5055640;27;102255;-55
2022/08/08 06:27:39;;;;;;;6.55;5.95;;;;;;;23.16;70.08;101203.38;5058244;27;102364;-55
2022/08/08 06:30:10;;;;;;;6.57;5.97;;;;;;;23.16;70.04;101209.75;5056105;27;104156;-54
2022/08/08 06:32:41;;;;;;;6.10;5.57;;;;;;;23.17;69.96;101205.00;5061356;27;102440;-54
2022/08/08 06:35:11;;;;;;;7.10;5.85;;;;;;;23.18;69.66;101210.19;5076308;27;102398;-54
2022/08/08 06:37:43;;;;;;;6.32;5.72;;;;;;;23.19;69.64;101211.03;5078175;27;102199;-54
2022/08/08 06:40:13;;;;;;;6.20;5.60;;;;;;;23.20;68.86;101205.13;5069159;27;103917;-54
2022/08/08 06:42:49;;;;;;;6.55;5.85;;;;;;;23.19;69.12;101214.63;5056782;27;102118;-55
2022/08/08 06:45:19;;;;;;;6.90;5.95;;;;;;;23.19;69.99;101203.50;5055949;27;102240;-55
2022/08/08 06:47:46;;;;;;;6.50;6.00;;;;;;;23.21;69.94;101214.25;5062815;27;102306;-55
2022/08/08 06:50:13;;;;;;;6.82;5.70;;;;;;;23.21;69.71;101215.06;5076238;27;104233;-55
2022/08/08 06:52:40;;;;;;;5.78;5.10;;;;;;;23.22;68.74;101215.88;5076926;27;102006;-55
2022/08/08 06:55:08;;;;;;;6.90;5.18;;;;;;;23.27;68.21;101221.22;5092867;27;102178;-54
2022/08/08 06:57:35;;;;;;;5.93;5.43;;;;;;;23.29;68.21;101215.31;5078366;27;102740;-54
2022/08/08 07:00:05;;;;;;;6.32;5.70;;;;;;;23.29;68.94;101215.31;5075592;27;103912;-54
2022/08/08 07:02:35;;;;;;;5.75;5.13;;;;;;;23.29;68.19;101218.09;5064831;27;102274;-54
2022/08/08 07:05:04;;;;;;;5.82;5.30;;;;;;;23.30;68.21;101219.69;5063617;27;102191;-54
2022/08/08 07:07:48;;;;;;;6.32;5.80;;;;;;;23.32;68.27;101222.94;5076045;27;102126;-55
2022/08/08 07:10:19;;;;;;;5.72;5.15;;;;;;;23.33;67.86;101213.44;5069236;27;103511;-54
2022/08/08 07:12:51;;;;;;;5.90;5.40;;;;;;;23.36;67.82;101218.31;5068504;27;103684;-55
2022/08/08 07:15:32;;;;;;;6.20;5.65;;;;;;;23.37;67.88;101211.59;5073056;27;102351;-54
2022/08/08 07:18:03;;;;;;;5.72;5.32;;;;;;;23.38;67.62;101213.25;5070879;27;102236;-57
2022/08/08 07:20:35;;;;;;;6.30;5.70;;;;;;;23.37;67.40;101206.88;5068031;27;103947;-55
2022/08/08 07:23:06;;;;;;;6.25;5.65;;;;;;;23.38;67.39;101214.06;5062401;27;102506;-54
2022/08/08 07:25:39;;;;;;;6.18;5.57;;;;;;;23.38;67.99;101213.25;5076983;27;102485;-54
2022/08/08 07:28:09;;;;;;;6.30;5.22;;;;;;;23.38;68.02;101221.56;5080385;27;102260;-54
2022/08/08 07:30:37;;;;;;;5.95;5.28;;;;;;;23.38;67.61;101216.03;5062091;27;104098;-54
2022/08/08 07:33:05;;;;;;;9.43;5.45;;;;;;;23.39;67.61;101214.84;5076264;27;102633;-55
2022/08/08 07:35:33;;;;;;;7.18;5.50;;;;;;;23.39;67.74;101212.09;5091773;27;102194;-54
2022/08/08 07:37:59;;;;;;;5.93;5.43;;;;;;;23.40;67.57;101213.69;5101495;27;102322;-55
2022/08/08 07:40:27;;;;;;;6.32;5.32;;;;;;;23.41;67.51;101221.69;5099733;27;103869;-54
2022/08/08 07:42:54;;;;;;;5.70;5.20;;;;;;;23.40;67.42;101208.13;5099197;27;102162;-54
2022/08/08 07:45:21;;;;;;;5.32;4.93;;;;;;;23.41;67.47;101218.13;5086834;27;102423;-54
2022/08/08 07:47:48;;;;;;;7.10;5.72;;;;;;;23.40;68.02;101219.25;5092542;27;102509;-55
2022/08/08 07:50:16;;;;;;;5.80;5.30;;;;;;;23.40;67.39;101217.28;5095471;27;103930;-54
2022/08/08 07:52:45;;;;;;;6.17;5.57;;;;;;;23.42;67.87;101222.50;5096253;27;102347;-54
2022/08/08 07:55:20;;;;;;;6.00;5.47;;;;;;;23.42;67.64;101216.94;5090604;27;102238;-54
2022/08/08 07:57:54;;;;;;;6.93;5.20;;;;;;;23.41;67.36;101216.13;5088936;27;104723;-54
2022/08/08 08:00:23;;;;;;;5.85;5.32;;;;;;;23.42;67.45;101216.94;5085876;27;103932;-55
2022/08/08 08:02:53;;;;;;;;;;;;;;;23.43;67.33;101210.22;5095963;27;103903;-54
2022/08/08 08:05:24;;;;;;;5.32;4.82;;;;;;;23.45;67.18;101217.06;5090826;27;102763;-54
2022/08/08 08:07:55;;;;;;;4.75;4.45;;;;;;;23.48;66.69;101213.59;5096461;27;102248;-54
2022/08/08 08:10:26;;;;;;;6.38;5.20;;;;;;;23.48;66.77;101215.56;5083195;27;107793;-55
2022/08/08 08:13:19;;;;;;;5.18;4.78;;;;;;;23.48;67.01;101213.59;5079464;27;102139;-54
2022/08/08 08:15:48;;;;;;;5.60;5.10;;;;;;;23.48;67.21;101215.56;5084266;27;103034;-55
2022/08/08 08:18:17;;;;;;;5.20;4.72;;;;;;;23.47;67.10;101213.94;5091822;27;102161;-55
2022/08/08 08:20:45;;;;;;;5.30;4.85;;;;;;;23.46;67.26;101212.31;5092188;27;104048;-54
2022/08/08 08:23:12;;;;;;;5.43;4.95;;;;;;;23.46;67.15;101206.75;5098843;27;102038;-54
2022/08/08 08:25:38;;;;;;;5.40;4.90;;;;;;;23.46;66.70;101207.56;5098050;27;102315;-55
2022/08/08 08:28:05;;;;;;;5.57;5.03;;;;;;;23.47;66.91;101209.19;5082806;27;102578;-55
2022/08/08 08:30:32;;;;;;;5.07;4.68;;;;;;;23.50;66.60;101202.13;5086777;27;103846;-54
2022/08/08 08:32:59;;;;;;;5.13;4.50;;;;;;;23.50;66.69;101205.72;5098034;27;102635;-54
2022/08/08 08:35:25;;;;;;;9.88;4.90;;;;;;;23.51;66.67;101217.63;5097940;27;102481;-54
2022/08/08 08:37:53;;;;;;;4.82;4.43;;;;;;;23.51;66.57;101209.28;5100240;27;102608;-55
2022/08/08 08:40:20;;;;;;;4.50;4.20;;;;;;;23.53;66.23;101209.78;5094849;27;104261;-54
2022/08/08 08:42:48;;;;;;;4.50;4.10;;;;;;;23.56;66.05;101209.09;5098776;27;102099;-54
2022/08/08 08:45:15;;;;;;;4.90;4.50;;;;;;;23.54;66.31;101208.59;5086969;27;102188;-55
2022/08/08 08:47:43;;;;;;;5.05;4.60;;;;;;;23.56;66.45;101211.06;5080489;27;102349;-55
2022/08/08 08:50:10;;;;;;;4.47;4.07;;;;;;;23.55;66.16;101209.41;5096505;27;103899;-54
2022/08/08 08:52:41;;;;;;;4.75;4.30;;;;;;;23.53;66.06;101207.00;5089275;27;102646;-55
2022/08/08 08:55:16;;;;;;;4.82;4.38;;;;;;;23.51;66.44;101206.50;5088280;27;102412;-55
2022/08/08 08:57:45;;;;;;;5.97;4.50;;;;;;;23.49;66.46;101203.28;5090881;27;102173;-54
2022/08/08 09:00:13;;;;;;;5.07;4.63;;;;;;;23.52;66.18;101205.38;5091328;27;103745;-54
2022/08/08 09:02:42;;;;;;;4.70;4.20;;;;;;;23.54;65.86;101203.03;5091575;27;102227;-54
2022/08/08 09:05:11;;;;;;;4.63;4.10;;;;;;;23.54;65.73;101207.78;5088461;27;102499;-54
2022/08/08 09:07:40;;;;;;;5.00;4.53;;;;;;;23.54;65.86;101205.03;5099579;27;102364;-54
2022/08/08 09:10:12;;;;;;;5.30;4.80;;;;;;;23.52;65.96;101205.38;5099910;27;103890;-54
2022/08/08 09:12:40;;;;;;;6.00;4.20;;;;;;;23.54;65.57;101205.03;5098549;27;102523;-54
2022/08/08 09:15:08;;;;;;;4.47;4.15;;;;;;;23.54;66.42;101205.81;5095678;27;102171;-54
2022/08/08 09:17:36;;;;;;;5.05;4.60;;;;;;;23.52;66.25;101199.81;5091482;27;102242;-54
2022/08/08 09:20:04;;;;;;;4.57;4.18;;;;;;;23.51;65.50;101203.75;5082993;27;103808;-54
2022/08/08 09:22:33;;;;;;;4.97;4.57;;;;;;;23.50;66.17;101196.56;5086184;27;103078;-54
2022/08/08 09:25:01;;;;;;;5.15;4.65;;;;;;;23.49;67.61;101200.50;5097935;27;102279;-54
2022/08/08 09:27:31;;;;;;;4.70;4.38;;;;;;;23.50;66.22;101202.13;5082271;27;102237;-54
2022/08/08 09:30:01;;;;;;;4.88;4.47;;;;;;;23.50;65.91;101202.13;5077368;27;103853;-54
2022/08/08 09:32:39;;;;;;;5.03;4.30;;;;;;;23.50;65.63;101202.13;5078334;27;102490;-55
2022/08/08 09:35:08;;;;;;;4.77;4.37;;;;;;;23.50;65.98;101202.13;5077515;27;102125;-54
2022/08/08 09:37:43;;;;;;;4.80;4.40;;;;;;;23.48;66.87;101205.25;5081158;27;102216;-54
2022/08/08 09:40:11;;;;;;;4.65;4.25;;;;;;;23.49;65.39;101200.50;5081152;27;104324;-55
2022/08/08 09:42:43;;;;;;;4.88;4.47;;;;;;;23.50;65.47;101191.81;5098308;27;102188;-54
2022/08/08 09:45:11;;;;;;;5.50;3.80;;;;;;;23.51;65.51;101198.19;5098117;27;102630;-55
2022/08/08 09:47:41;;;;;;;3.58;3.38;;;;;;;23.50;67.06;101194.59;5095695;27;102584;-54
2022/08/08 09:50:09;;;;;;;4.20;3.88;;;;;;;23.51;65.92;101198.19;5095502;27;103963;-54
2022/08/08 09:52:39;;;;;;;4.55;4.15;;;;;;;23.51;66.44;101189.84;5097317;27;102457;-54
2022/08/08 09:55:07;;;;;;;4.30;4.00;;;;;;;23.49;66.29;101184.66;5087029;27;102287;-54
2022/08/08 09:57:36;;;;;;;5.00;4.05;;;;;;;23.45;68.02;101183.72;5086012;27;102225;-55
2022/08/08 10:00:08;;;;;;;4.50;4.10;;;;;;;23.46;65.90;101178.97;5092388;27;104130;-54
2022/08/08 10:02:38;;;;;;;4.10;3.80;;;;;;;23.49;65.04;101181.06;5092914;27;102227;-55
2022/08/08 10:05:15;;;;;;;3.90;3.60;;;;;;;23.49;67.42;101181.06;5087327;27;102097;-54
2022/08/08 10:07:53;;;;;;;4.50;4.18;;;;;;;23.41;68.26;101182.81;5095428;27;102545;-54
2022/08/08 10:10:22;;;;;;;;;;;;;;;23.41;68.12;101182.81;5104073;27;103905;-54
2022/08/08 10:12:50;;;;;;;4.07;3.60;;;;;;;23.41;68.47;101171.69;5098304;27;102222;-54
2022/08/08 10:15:17;;;;;;;4.30;3.90;;;;;;;23.40;66.11;101164.50;5097859;27;102298;-54
2022/08/08 10:17:46;;;;;;;4.37;4.07;;;;;;;23.42;65.22;101166.94;5098850;27;102575;-55
2022/08/08 10:20:13;;;;;;;4.32;3.92;;;;;;;23.44;67.67;101181.28;5072508;27;104565;-54
2022/08/08 10:22:46;;;;;;;4.53;3.80;;;;;;;23.42;66.53;101175.28;5057056;27;102546;-54
2022/08/08 10:25:18;;;;;;;4.43;3.17;;;;;;;23.39;68.39;101173.19;5056203;27;102123;-55
2022/08/08 10:27:50;;;;;;;4.47;3.50;;;;;;;23.40;67.21;101174.81;5058267;27;101982;-54
2022/08/08 10:30:19;;;;;;;4.15;3.78;;;;;;;23.41;66.16;101170.91;5072790;27;104108;-54
2022/08/08 10:32:49;;;;;;;;;;;;;;;23.42;67.89;101178.88;5076870;27;102098;-54
2022/08/08 10:35:17;;;;;;;3.95;3.65;;;;;;;23.39;68.55;101164.88;5094139;27;102219;-54
2022/08/08 10:37:51;;;;;;;3.30;3.10;;;;;;;23.36;68.24;101165.56;5098096;27;102169;-54
2022/08/08 10:40:18;;;;;;;4.70;4.20;;;;;;;23.37;67.84;101158.84;5082177;27;103985;-54
2022/08/08 10:42:47;;;;;;;3.80;3.50;;;;;;;23.36;68.58;101157.22;5065552;27;102625;-54
2022/08/08 10:45:14;;;;;;;4.00;3.60;;;;;;;23.36;68.14;101158.03;5064736;27;102676;-54
2022/08/08 10:47:43;;;;;;;4.00;3.70;;;;;;;23.37;66.94;101153.28;5079925;27;102288;-54
2022/08/08 10:50:10;;;;;;;5.20;3.58;;;;;;;23.37;66.90;101156.91;5078893;27;103936;-55
2022/08/08 10:52:40;;;;;;;4.03;3.72;;;;;;;23.36;67.79;101146.91;5080848;27;102389;-55
2022/08/08 10:55:09;;;;;;;3.88;3.58;;;;;;;23.36;68.24;101152.47;5080137;27;102422;-54
2022/08/08 10:57:41;;;;;;;3.80;3.50;;;;;;;23.33;66.92;101146.81;5080962;27;102123;-55
2022/08/08 11:00:11;;;;;;;3.55;3.25;;;;;;;23.30;68.07;101145.56;5079987;27;103969;-55
2022/08/08 11:02:38;;;;;;;3.75;3.45;;;;;;;23.32;66.03;101157.09;5079296;27;102120;-54
2022/08/08 11:05:08;;;;;;;3.47;3.17;;;;;;;23.36;67.07;101146.13;5078570;27;102720;-55
2022/08/08 11:07:38;;;;;;;4.00;3.70;;;;;;;23.36;67.52;101144.13;5072186;27;102506;-54
2022/08/08 11:10:07;;;;;;;3.63;3.42;;;;;;;23.39;66.35;101139.88;5077855;27;103952;-54
2022/08/08 11:12:43;;;;;;;3.92;3.63;;;;;;;23.37;65.11;101143.00;5073357;27;101994;-54
2022/08/08 11:15:12;;;;;;;3.47;3.28;;;;;;;23.37;67.48;101148.56;5069213;27;102085;-54
2022/08/08 11:17:40;;;;;;;3.85;3.55;;;;;;;23.37;65.90;101139.38;5073632;27;102573;-55
2022/08/08 11:20:09;;;;;;;4.40;4.00;;;;;;;23.35;67.76;101127.84;5079473;27;103929;-54
2022/08/08 11:22:37;;;;;;;3.58;3.28;;;;;;;23.31;68.08;101132.47;5079778;27;102024;-54
2022/08/08 11:25:12;;;;;;;4.13;3.72;;;;;;;23.32;65.94;101126.56;5076606;27;102121;-54
2022/08/08 11:27:41;;;;;;;5.13;3.72;;;;;;;23.36;65.41;101132.22;5078784;27;102373;-54
2022/08/08 11:30:09;;;;;;;3.88;3.20;;;;;;;23.40;66.26;101127.59;5079324;27;104347;-54
2022/08/08 11:32:37;;;;;;;;;;;;;;;23.37;67.73;101111.63;5080129;27;102131;-54
2022/08/08 11:35:06;;;;;;;3.95;3.65;;;;;;;23.36;65.67;101118.34;5079935;27;102511;-54
2022/08/08 11:37:35;;;;;;;3.95;3.55;;;;;;;23.38;65.85;101116.03;5080203;27;102414;-55
2022/08/08 11:40:04;;;;;;;3.78;3.47;;;;;;;23.31;68.27;101111.06;5079328;27;104252;-54
2022/08/08 11:42:31;;;;;;;3.80;3.50;;;;;;;23.31;67.68;101115.81;5078333;27;101967;-54
2022/08/08 11:44:58;;;;;;;3.90;3.60;;;;;;;23.30;66.22;101109.44;5079095;27;102327;-54
2022/08/08 11:47:25;;;;;;;4.70;3.75;;;;;;;23.30;67.20;101103.91;5078776;27;102229;-54
2022/08/08 11:49:55;;;;;;;4.00;3.60;;;;;;;23.27;68.04;101105.41;5078370;27;104222;-54
2022/08/08 11:52:23;;;;;;;3.42;3.13;;;;;;;23.27;67.34;101105.41;5078833;27;102289;-54
2022/08/08 11:54:51;;;;;;;3.97;3.67;;;;;;;23.29;68.00;101112.56;5079380;27;102224;-54
2022/08/08 11:57:20;;;;;;;3.80;3.47;;;;;;;23.29;68.02;101113.38;5080729;27;102123;-55